createdAt,value
2022-12-01T00:01:57.493Z,16.98
2022-12-01T00:06:59.141Z,18.45
2022-12-01T00:12:00.768Z,17.17
2022-12-01T00:17:02.348Z,16.75
2022-12-01T00:22:04.297Z,11.95
2022-12-01T00:27:05.844Z,13.60
2022-12-01T00:32:08.280Z,13.43
2022-12-01T00:37:09.901Z,11.88
2022-12-01T00:42:13.716Z,13.20
2022-12-01T00:47:15.592Z,13.10
2022-12-01T00:52:17.519Z,16.50
2022-12-01T00:57:19.088Z,15.48
2022-12-01T01:02:20.759Z,12.63
2022-12-01T01:07:22.437Z,14.10
2022-12-01T01:12:24.024Z,13.57
2022-12-01T01:17:25.581Z,17.55
2022-12-01T01:22:27.169Z,14.93
2022-12-01T01:27:28.746Z,17.35
2022-12-01T01:32:30.304Z,16.98
2022-12-01T01:37:31.883Z,15.43
2022-12-01T01:42:33.433Z,18.17
2022-12-01T01:47:38.148Z,19.48
2022-12-01T01:52:48.647Z,18.92
2022-12-01T01:57:50.392Z,15.82
2022-12-01T02:02:53.433Z,18.05
2022-12-01T02:07:57.271Z,21.95
2022-12-01T02:13:01.920Z,19.08
2022-12-01T02:18:26.512Z,23.88
2022-12-01T02:23:39.859Z,21.92
2022-12-01T02:29:03.948Z,21.83
2022-12-01T02:34:23.966Z,20.90
2022-12-01T02:39:40.973Z,23.00
2022-12-01T02:44:45.004Z,24.23
2022-12-01T02:49:50.280Z,22.23
2022-12-01T02:54:53.237Z,21.85
2022-12-01T02:59:55.969Z,22.35
2022-12-01T03:05:24.199Z,23.13
2022-12-01T03:10:45.884Z,30.08
2022-12-01T03:16:14.542Z,25.50
2022-12-01T03:22:05.491Z,26.95
2022-12-01T03:27:10.084Z,27.33
2022-12-01T03:32:17.698Z,23.92
2022-12-01T03:37:22.392Z,28.20
2022-12-01T03:42:28.846Z,26.35
2022-12-01T03:47:37.227Z,26.73
2022-12-01T03:52:45.392Z,26.50
2022-12-01T03:58:00.015Z,26.15
2022-12-01T04:03:05.324Z,25.48
2022-12-01T04:08:06.946Z,25.67
2022-12-01T04:13:16.321Z,26.60
2022-12-01T04:18:19.066Z,27.73
2022-12-01T04:23:59.018Z,27.63
2022-12-01T04:29:02.196Z,29.80
2022-12-01T04:34:04.165Z,28.08
2022-12-01T04:39:05.820Z,30.67
2022-12-01T04:44:07.390Z,28.90
2022-12-01T04:49:09.116Z,26.77
2022-12-01T04:54:10.692Z,28.40
2022-12-01T04:59:12.728Z,29.40
2022-12-01T05:04:14.684Z,25.20
2022-12-01T05:09:17.991Z,27.40
2022-12-01T05:14:19.640Z,28.20
2022-12-01T05:19:40.089Z,27.75
2022-12-01T05:24:41.644Z,25.75
2022-12-01T05:29:43.167Z,31.23
2022-12-01T05:34:44.725Z,31.27
2022-12-01T05:39:46.645Z,32.60
2022-12-01T05:44:48.484Z,31.90
2022-12-01T05:49:50.598Z,33.85
2022-12-01T05:54:52.334Z,34.50
2022-12-01T05:59:53.914Z,32.28
2022-12-01T06:04:55.492Z,34.63
2022-12-01T06:09:57.124Z,32.97
2022-12-01T06:14:58.654Z,30.67
2022-12-01T06:20:00.380Z,30.92
2022-12-01T06:25:01.975Z,31.70
2022-12-01T06:30:05.141Z,33.00
2022-12-01T06:35:07.206Z,30.35
2022-12-01T06:40:09.349Z,31.65
2022-12-01T06:45:11.541Z,30.02
2022-12-01T06:50:13.143Z,29.05
2022-12-01T06:55:14.851Z,32.42
2022-12-01T07:00:17.301Z,26.25
2022-12-01T07:05:19.270Z,32.50
2022-12-01T07:10:23.008Z,28.75
2022-12-01T07:15:24.672Z,29.83
2022-12-01T07:20:26.230Z,28.40
2022-12-01T07:25:27.805Z,27.55
2022-12-01T07:30:29.599Z,28.00
2022-12-01T07:35:31.183Z,25.50
2022-12-01T07:40:32.724Z,30.17
2022-12-01T07:45:34.572Z,29.35
2022-12-01T07:50:36.120Z,25.33
2022-12-01T07:55:37.737Z,29.00
2022-12-01T08:00:39.271Z,25.92
2022-12-01T08:05:40.868Z,27.40
2022-12-01T08:10:42.404Z,26.02
2022-12-01T08:15:44.285Z,25.38
2022-12-01T08:20:45.852Z,23.80
2022-12-01T08:25:47.435Z,26.98
2022-12-01T08:30:49.007Z,26.15
2022-12-01T08:35:50.730Z,25.40
2022-12-01T08:40:56.994Z,24.42
2022-12-01T08:46:04.576Z,24.55
2022-12-01T08:51:11.876Z,27.10
2022-12-01T08:56:19.422Z,27.88
2022-12-01T09:01:21.522Z,26.25
2022-12-01T09:06:23.200Z,23.98
2022-12-01T09:11:24.753Z,25.25
2022-12-01T09:16:26.422Z,24.17
2022-12-01T09:21:33.102Z,25.48
2022-12-01T09:26:34.646Z,25.35
2022-12-01T09:31:37.044Z,26.88
2022-12-01T09:36:39.183Z,28.05
2022-12-01T09:41:46.592Z,26.63
2022-12-01T09:47:08.510Z,23.70
2022-12-01T09:52:15.922Z,24.10
2022-12-01T09:57:36.547Z,24.58
2022-12-01T10:03:03.151Z,27.13
2022-12-01T10:08:11.970Z,25.90
2022-12-01T10:13:33.833Z,24.83
2022-12-01T10:18:55.419Z,25.05
2022-12-01T10:24:31.007Z,21.60
2022-12-01T10:29:47.942Z,22.40
2022-12-01T10:34:49.796Z,25.60
2022-12-01T10:39:54.407Z,23.63
2022-12-01T10:44:57.199Z,22.50
2022-12-01T10:49:59.160Z,23.58
2022-12-01T10:55:02.506Z,24.38
2022-12-01T11:00:09.018Z,25.20
2022-12-01T11:05:25.271Z,23.42
2022-12-01T11:10:29.949Z,24.67
2022-12-01T11:15:34.370Z,27.35
2022-12-01T11:20:40.794Z,24.75
2022-12-01T11:25:42.590Z,24.13
2022-12-01T11:30:44.232Z,25.98
2022-12-01T11:35:49.198Z,23.40
2022-12-01T11:40:54.048Z,24.00
2022-12-01T11:45:58.770Z,21.92
2022-12-01T11:51:28.680Z,26.10
2022-12-01T12:02:03.380Z,24.23
2022-12-01T12:07:14.165Z,29.30
2022-12-01T12:12:37.208Z,23.92
2022-12-01T12:17:44.579Z,23.85
2022-12-01T12:23:07.814Z,23.60
2022-12-01T12:28:19.623Z,25.73
2022-12-01T12:33:23.859Z,25.83
2022-12-01T12:38:34.995Z,23.13
2022-12-01T12:43:51.611Z,24.27
2022-12-01T12:49:19.705Z,24.58
2022-12-01T12:54:34.766Z,23.60
2022-12-01T12:59:47.133Z,22.27
2022-12-01T13:04:57.975Z,21.50
2022-12-01T13:10:10.123Z,26.33
2022-12-01T13:15:17.124Z,21.08
2022-12-01T13:20:25.150Z,21.85
2022-12-01T13:25:40.798Z,21.95
2022-12-01T13:31:00.787Z,22.75
2022-12-01T13:36:44.624Z,24.35
2022-12-01T13:41:39.914Z,24.88
2022-12-01T13:46:41.667Z,22.30
2022-12-01T13:52:21.020Z,23.50
2022-12-01T13:57:27.715Z,27.83
2022-12-01T14:02:32.049Z,23.55
2022-12-01T14:07:35.887Z,24.35
2022-12-01T14:12:37.986Z,23.33
2022-12-01T14:17:39.664Z,23.40
2022-12-01T14:22:44.484Z,24.25
2022-12-01T14:27:52.275Z,25.02
2022-12-01T14:33:32.515Z,24.33
2022-12-01T14:38:34.207Z,25.35
2022-12-01T14:43:56.639Z,25.60
2022-12-01T14:48:59.018Z,27.17
2022-12-01T14:54:06.620Z,30.95
2022-12-01T14:59:21.012Z,39.80
2022-12-01T15:04:22.581Z,28.65
2022-12-01T15:09:33.693Z,25.55
2022-12-01T15:14:38.438Z,25.88
2022-12-01T15:19:41.586Z,25.83
2022-12-01T15:24:44.023Z,23.95
2022-12-01T15:29:46.933Z,26.13
2022-12-01T15:34:52.113Z,26.10
2022-12-01T15:45:29.363Z,23.30
2022-12-01T15:50:41.242Z,26.10
2022-12-01T15:55:54.088Z,24.70
2022-12-01T16:01:02.525Z,25.17
2022-12-01T16:06:04.345Z,23.92
2022-12-01T16:11:20.442Z,26.02
2022-12-01T16:16:40.796Z,25.23
2022-12-01T16:21:59.903Z,27.02
2022-12-01T16:27:04.077Z,25.17
2022-12-01T16:32:21.086Z,25.40
2022-12-01T16:37:23.640Z,25.13
2022-12-01T16:42:27.647Z,25.20
2022-12-01T16:47:33.544Z,24.90
2022-12-01T16:52:50.315Z,22.40
2022-12-01T16:57:51.954Z,24.15
2022-12-01T17:02:53.532Z,24.90
2022-12-01T17:07:55.395Z,22.67
2022-12-01T17:12:57.255Z,21.92
2022-12-01T17:17:58.849Z,23.67
2022-12-01T17:23:00.571Z,23.15
2022-12-01T17:28:02.128Z,25.70
2022-12-01T17:33:04.179Z,22.23
2022-12-01T17:38:06.089Z,22.40
2022-12-01T17:43:08.390Z,23.35
2022-12-01T17:48:10.711Z,25.42
2022-12-01T17:53:12.285Z,22.65
2022-12-01T17:58:13.879Z,24.55
2022-12-01T18:03:15.534Z,25.05
2022-12-01T18:08:17.151Z,27.60
2022-12-01T18:13:21.210Z,25.17
2022-12-01T18:18:23.027Z,26.45
2022-12-01T18:23:24.598Z,26.10
2022-12-01T18:28:26.139Z,27.23
2022-12-01T18:33:27.689Z,25.70
2022-12-01T18:38:29.300Z,21.75
2022-12-01T18:43:33.095Z,23.98
2022-12-01T18:48:35.270Z,23.55
2022-12-01T18:53:36.898Z,23.13
2022-12-01T18:58:39.194Z,22.48
2022-12-01T19:03:40.724Z,23.52
2022-12-01T19:08:42.471Z,25.33
2022-12-01T19:13:44.780Z,24.17
2022-12-01T19:18:48.763Z,28.35
2022-12-01T19:23:50.874Z,26.73
2022-12-01T19:28:52.558Z,29.63
2022-12-01T19:33:55.063Z,26.15
2022-12-01T19:39:00.568Z,26.58
2022-12-01T19:44:04.240Z,30.67
2022-12-01T19:49:06.776Z,27.85
2022-12-01T19:54:13.722Z,30.83
2022-12-01T19:59:15.337Z,26.55
2022-12-01T20:04:16.956Z,29.35
2022-12-01T20:09:19.007Z,30.52
2022-12-01T20:14:20.884Z,29.08
2022-12-01T20:19:22.605Z,31.73
2022-12-01T20:24:25.356Z,28.50
2022-12-01T20:29:29.109Z,28.60
2022-12-01T20:34:34.018Z,33.92
2022-12-01T20:39:38.128Z,38.88
2022-12-01T20:44:40.425Z,37.40
2022-12-01T20:49:42.028Z,37.28
2022-12-01T20:54:44.749Z,41.72
2022-12-01T20:59:46.291Z,41.10
2022-12-01T21:04:48.034Z,39.90
2022-12-01T21:09:49.783Z,39.20
2022-12-01T21:15:08.350Z,39.78
2022-12-01T21:20:30.892Z,37.55
2022-12-01T21:25:33.511Z,36.47
2022-12-01T21:30:37.213Z,38.67
2022-12-01T21:35:38.811Z,36.45
2022-12-01T21:40:43.759Z,39.80
2022-12-01T21:45:46.673Z,40.95
2022-12-01T21:50:54.161Z,40.08
2022-12-01T21:55:56.223Z,39.38
2022-12-01T22:00:59.620Z,42.53
2022-12-01T22:06:28.650Z,37.60
2022-12-01T22:11:30.278Z,39.90
2022-12-01T22:16:37.927Z,38.22
2022-12-01T22:21:52.461Z,44.35
2022-12-01T22:27:06.271Z,42.03
2022-12-01T22:32:13.650Z,45.40
2022-12-01T22:37:25.136Z,39.55
2022-12-01T22:42:34.951Z,43.97
2022-12-01T22:52:37.975Z,46.78
2022-12-01T22:57:39.534Z,39.55
2022-12-01T23:02:41.262Z,44.70
2022-12-01T23:07:43.231Z,48.88
2022-12-01T23:12:46.694Z,46.28
2022-12-01T23:17:49.360Z,46.05
2022-12-01T23:22:56.092Z,47.80
2022-12-01T23:28:02.670Z,50.65
2022-12-01T23:33:14.309Z,50.05
2022-12-01T23:38:19.822Z,50.38
2022-12-01T23:43:34.817Z,52.45
2022-12-01T23:48:41.575Z,53.08
2022-12-01T23:53:43.229Z,52.15
2022-12-01T23:58:45.178Z,52.22
